Time;durP1;ratioP1;P1;durP2;ratioP2;P2;SDS_P1;SDS_P2;PMS_P1;PMS_P2;Temp;Humidity;BMP_temperature;BMP_pressure;BME280_temperature;BME280_humidity;BME280_pressure;Samples;Min_cycle;Max_cycle;Signal;HPM_P1;HPM_P2
2023/03/28 00:00:12;;;;;;;3.50;3.40;;;;;;;9.93;80.84;98106.94;5074306;28;20230;-69
2023/03/28 00:02:38;;;;;;;2.97;2.87;;;;;;;9.95;80.98;98115.47;5074685;28;20308;-69
2023/03/28 00:05:07;;;;;;;2.80;2.70;;;;;;;9.98;80.83;98115.03;5074673;28;20264;-69
2023/03/28 00:07:35;;;;;;;3.50;3.30;;;;;;;9.99;80.64;98127.25;5073602;28;20193;-69
2023/03/28 00:10:02;;;;;;;3.10;3.00;;;;;;;9.93;81.34;98128.16;5074228;28;20688;-69
2023/03/28 00:12:29;;;;;;;3.43;3.33;;;;;;;9.94;81.52;98122.63;5074048;28;20290;-69
2023/03/28 00:14:57;;;;;;;3.47;3.13;;;;;;;9.93;81.56;98120.22;5074074;28;20256;-69
2023/03/28 00:17:24;;;;;;;2.80;2.70;;;;;;;9.93;81.57;98117.56;5073156;28;20298;-69
2023/03/28 00:19:52;;;;;;;2.70;2.60;;;;;;;9.88;82.63;98115.56;5074087;28;20196;-70
2023/03/28 00:22:20;;;;;;;2.33;2.23;;;;;;;9.84;82.23;98124.19;5073929;28;20619;-70
2023/03/28 00:24:48;;;;;;;2.40;2.30;;;;;;;9.78;81.59;98119.78;5073985;28;20668;-69
2023/03/28 00:27:14;;;;;;;2.63;2.43;;;;;;;9.89;80.62;98138.41;5073158;28;20306;-69
2023/03/28 00:29:41;;;;;;;2.20;2.10;;;;;;;9.82;80.11;98140.34;5073926;28;20730;-70
2023/03/28 00:32:08;;;;;;;2.47;2.37;;;;;;;9.86;80.88;98138.03;5074069;28;20250;-70
2023/03/28 00:34:35;;;;;;;2.43;2.33;;;;;;;9.80;80.95;98146.91;5073883;28;20577;-69
2023/03/28 00:37:02;;;;;;;1.90;1.70;;;;;;;9.84;80.55;98143.56;5073595;28;20215;-69
2023/03/28 00:39:30;;;;;;;1.87;1.87;;;;;;;9.70;80.61;98134.19;5073192;28;20196;-70
2023/03/28 00:42:00;;;;;;;1.60;1.50;;;;;;;9.73;80.47;98143.53;5073625;28;20666;-69
2023/03/28 00:44:45;;;;;;;2.10;2.00;;;;;;;9.67;80.02;98145.22;5073152;28;20199;-69
2023/03/28 00:47:35;;;;;;;2.13;2.13;;;;;;;9.71;79.72;98158.81;5073427;28;20200;-69
2023/03/28 00:50:07;;;;;;;1.63;1.63;;;;;;;9.61;80.15;98156.69;5073900;28;20221;-69
2023/03/28 00:52:38;;;;;;;1.80;1.80;;;;;;;9.54;80.07;98153.34;5073696;28;20184;-69
2023/03/28 00:55:12;;;;;;;1.97;1.63;;;;;;;9.51;79.48;98155.59;5073516;28;20200;-69
2023/03/28 00:57:40;;;;;;;1.87;1.63;;;;;;;9.47;80.22;98159.72;5073241;28;20204;-69
2023/03/28 01:00:11;;;;;;;2.57;2.47;;;;;;;9.37;80.65;98160.25;5073531;28;20225;-70
2023/03/28 01:02:40;;;;;;;2.37;2.17;;;;;;;9.34;80.67;98184.53;5073259;28;20673;-69
2023/03/28 01:05:08;;;;;;;1.70;1.70;;;;;;;9.24;80.13;98186.09;5072658;28;20577;-69
2023/03/28 01:07:44;;;;;;;1.80;1.80;;;;;;;9.27;80.45;98185.66;5073108;28;20196;-69
2023/03/28 01:10:12;;;;;;;1.70;1.70;;;;;;;9.02;79.04;98204.22;5073175;28;20191;-69
2023/03/28 01:12:42;;;;;;;2.30;2.17;;;;;;;9.02;78.01;98198.09;5073301;28;20192;-68
2023/03/28 01:15:09;;;;;;;2.50;2.40;;;;;;;8.84;77.50;98212.13;5071796;28;20595;-69
2023/03/28 01:17:36;;;;;;;2.97;2.63;;;;;;;8.82;76.98;98224.75;5072804;28;20227;-69
2023/03/28 01:20:17;;;;;;;2.50;2.40;;;;;;;8.66;78.24;98224.47;5073292;28;20237;-69
2023/03/28 01:23:09;;;;;;;2.70;2.60;;;;;;;8.42;77.13;98230.53;5073118;28;20223;-68
2023/03/28 01:26:17;;;;;;;6.03;2.67;;;;;;;8.37;76.81;98223.22;5061657;28;20188;-70
2023/03/28 01:29:15;;;;;;;1.80;1.80;;;;;;;8.22;75.75;98253.63;5072631;28;20195;-69
2023/03/28 01:32:11;;;;;;;2.57;2.47;;;;;;;8.07;75.94;98251.25;5059411;28;20180;-69
2023/03/28 01:35:06;;;;;;;2.70;2.60;;;;;;;8.01;75.81;98240.69;5066848;28;20195;-69
2023/03/28 01:37:42;;;;;;;2.70;2.50;;;;;;;7.97;75.33;98239.50;5072734;28;20219;-69
2023/03/28 01:40:20;;;;;;;2.33;2.23;;;;;;;7.95;74.83;98246.81;5072535;28;20652;-69
2023/03/28 01:42:57;;;;;;;2.10;2.10;;;;;;;7.87;74.51;98233.81;5072963;28;20184;-69
2023/03/28 01:45:32;;;;;;;2.67;2.57;;;;;;;7.81;75.20;98242.59;5071763;28;20240;-69
2023/03/28 01:48:07;;;;;;;2.17;2.17;;;;;;;7.72;74.93;98262.34;5072668;28;20187;-69
2023/03/28 01:50:41;;;;;;;2.87;2.77;;;;;;;7.74;74.78;98255.00;5073111;28;20183;-69
2023/03/28 01:53:15;;;;;;;2.40;2.30;;;;;;;7.63;73.85;98266.25;5072136;28;20237;-68
2023/03/28 01:55:52;;;;;;;2.60;2.50;;;;;;;7.56;73.54;98291.88;5072278;28;20582;-69
2023/03/28 01:58:27;;;;;;;1.97;1.97;;;;;;;7.56;74.05;98291.88;5072065;28;20264;-69
2023/03/28 02:01:03;;;;;;;2.00;2.00;;;;;;;7.56;72.02;98291.88;5072184;28;20244;-69
2023/03/28 02:03:33;;;;;;;2.50;2.03;;;;;;;7.39;72.73;98309.97;5071785;28;20195;-69
2023/03/28 02:06:01;;;;;;;2.30;2.20;;;;;;;7.32;72.08;98306.53;5071972;28;20606;-70
2023/03/28 02:08:33;;;;;;;4.00;1.93;;;;;;;7.33;71.25;98317.88;5072388;28;20645;-69
2023/03/28 02:11:00;;;;;;;1.80;1.80;;;;;;;7.20;71.37;98312.63;5072029;28;20193;-70
2023/03/28 02:13:33;;;;;;;2.00;1.90;;;;;;;7.18;71.54;98330.50;5071705;28;20204;-69
2023/03/28 02:16:02;;;;;;;5.13;1.87;;;;;;;7.23;70.26;98328.84;5072187;28;20267;-69
2023/03/28 02:18:33;;;;;;;1.93;1.93;;;;;;;7.14;69.11;98342.47;5071584;28;20708;-69
2023/03/28 02:21:05;;;;;;;2.17;2.13;;;;;;;7.06;68.65;98337.41;5070792;28;20188;-70
2023/03/28 02:23:37;;;;;;;2.03;1.93;;;;;;;6.93;69.35;98346.09;5067999;28;20625;-69
2023/03/28 02:26:05;;;;;;;2.03;1.93;;;;;;;6.92;69.88;98328.63;5063899;28;20229;-69
2023/03/28 02:28:35;;;;;;;2.20;2.10;;;;;;;6.84;70.39;98341.19;5071942;28;20195;-69
2023/03/28 02:31:03;;;;;;;2.80;2.53;;;;;;;6.85;70.42;98348.09;5072033;28;20191;-70
2023/03/28 02:33:38;;;;;;;2.03;2.03;;;;;;;6.65;70.91;98357.81;5071104;28;20215;-69
2023/03/28 02:36:19;;;;;;;2.30;2.20;;;;;;;6.67;71.45;98367.16;5072099;28;20184;-70
2023/03/28 02:38:58;;;;;;;2.60;2.47;;;;;;;6.56;71.70;98364.25;5071563;28;20775;-70
2023/03/28 02:41:35;;;;;;;2.87;2.67;;;;;;;6.47;71.10;98365.44;5071663;28;20201;-70
2023/03/28 02:44:20;;;;;;;3.13;3.03;;;;;;;6.47;70.70;98373.38;5064030;28;20189;-70
2023/03/28 02:46:58;;;;;;;3.30;3.10;;;;;;;6.47;70.75;98363.66;5051486;28;20250;-70
2023/03/28 02:49:57;;;;;;;3.10;2.97;;;;;;;6.55;70.65;98370.56;5051454;28;20184;-70
2023/03/28 02:52:34;;;;;;;3.20;3.10;;;;;;;6.32;70.95;98364.81;5053886;28;20269;-69
2023/03/28 02:55:11;;;;;;;3.40;3.20;;;;;;;6.40;72.00;98380.47;5071596;28;20194;-69
2023/03/28 02:57:41;;;;;;;3.43;3.33;;;;;;;6.28;72.61;98387.31;5070678;28;20618;-69
2023/03/28 03:00:11;;;;;;;3.97;3.87;;;;;;;6.17;73.34;98379.94;5068461;28;20652;-69
2023/03/28 03:02:39;;;;;;;3.80;3.60;;;;;;;6.09;73.50;98395.91;5053482;28;20556;-68
2023/03/28 03:05:08;;;;;;;3.57;3.47;;;;;;;6.14;73.01;98401.41;5055416;28;20657;-69
2023/03/28 03:07:35;;;;;;;3.00;2.90;;;;;;;6.14;72.23;98398.78;5056078;28;20304;-68
2023/03/28 03:10:05;;;;;;;3.30;3.10;;;;;;;6.08;72.27;98389.81;5055665;28;20193;-69
2023/03/28 03:12:32;;;;;;;3.60;3.50;;;;;;;6.03;72.19;98399.31;5055628;28;20219;-69
2023/03/28 03:15:00;;;;;;;3.93;3.73;;;;;;;6.11;72.09;98420.22;5055172;28;20583;-69
2023/03/28 03:17:27;;;;;;;3.50;3.30;;;;;;;6.17;71.81;98416.84;5055463;28;20196;-69
2023/03/28 03:19:54;;;;;;;3.60;3.40;;;;;;;6.15;72.10;98424.13;5055191;28;20193;-71
2023/03/28 03:22:21;;;;;;;3.93;3.83;;;;;;;6.06;71.75;98414.75;5058967;28;20203;-71
2023/03/28 03:24:49;;;;;;;3.97;3.63;;;;;;;6.03;71.28;98436.19;5074935;28;20196;-70
2023/03/28 03:27:18;;;;;;;4.10;3.90;;;;;;;6.14;70.83;98423.31;5075382;28;20656;-70
2023/03/28 03:29:45;;;;;;;3.60;3.40;;;;;;;5.98;70.65;98414.88;5075320;28;20215;-70
2023/03/28 03:32:12;;;;;;;3.43;3.33;;;;;;;5.95;70.55;98431.09;5055799;28;20203;-72
2023/03/28 03:34:40;;;;;;;3.40;3.30;;;;;;;5.96;70.44;98456.44;5055242;28;20253;-70
2023/03/28 03:37:07;;;;;;;3.37;3.20;;;;;;;5.87;70.51;98439.16;5054810;28;20626;-71
2023/03/28 03:39:35;;;;;;;3.60;3.50;;;;;;;5.84;70.52;98447.44;5054598;28;20278;-70
2023/03/28 03:42:02;;;;;;;3.83;3.73;;;;;;;5.69;70.53;98450.13;5067004;28;20267;-70
2023/03/28 03:44:30;;;;;;;3.93;3.83;;;;;;;5.70;70.52;98452.56;5054947;28;20196;-70
2023/03/28 03:46:57;;;;;;;3.63;3.53;;;;;;;5.78;69.60;98449.81;5054627;28;20192;-71
2023/03/28 03:49:24;;;;;;;4.20;4.10;;;;;;;5.61;69.97;98458.97;5054522;28;20196;-71
2023/03/28 03:51:50;;;;;;;5.20;3.63;;;;;;;5.70;69.81;98462.28;5055024;28;20243;-71
2023/03/28 03:54:17;;;;;;;3.00;2.90;;;;;;;5.56;70.05;98464.00;5053450;28;20192;-72
2023/03/28 03:56:44;;;;;;;3.60;3.40;;;;;;;5.64;69.81;98461.22;5054129;28;20250;-71
2023/03/28 03:59:11;;;;;;;5.37;3.23;;;;;;;5.59;69.44;98471.53;5052412;28;20231;-72
2023/03/28 04:01:40;;;;;;;3.87;3.67;;;;;;;5.65;69.60;98468.13;5054228;28;20196;-72
2023/03/28 04:04:07;;;;;;;3.23;3.13;;;;;;;5.66;69.24;98480.31;5053788;28;20196;-71
2023/03/28 04:06:34;;;;;;;3.33;3.13;;;;;;;5.64;69.36;98484.13;5054669;28;20254;-71
2023/03/28 04:09:00;;;;;;;3.57;3.47;;;;;;;5.72;69.55;98497.97;5054164;28;20627;-70
2023/03/28 04:11:27;;;;;;;3.73;3.60;;;;;;;5.83;68.92;98488.78;5068206;28;20246;-71
2023/03/28 04:13:54;;;;;;;3.27;3.17;;;;;;;5.73;69.27;98478.50;5072860;28;20200;-72
2023/03/28 04:16:22;;;;;;;3.47;3.37;;;;;;;5.81;68.41;98490.78;5073907;28;20193;-68
2023/03/28 04:18:51;;;;;;;3.30;3.10;;;;;;;5.76;67.85;98504.50;5074181;28;20288;-69
2023/03/28 04:21:20;;;;;;;3.33;3.23;;;;;;;5.64;67.81;98511.28;5061233;28;20196;-68
2023/03/28 04:23:47;;;;;;;3.50;3.30;;;;;;;5.60;68.22;98525.81;5054370;28;20205;-69
2023/03/28 04:26:19;;;;;;;3.13;3.03;;;;;;;5.72;67.24;98549.88;5067193;28;20223;-68
2023/03/28 04:28:46;;;;;;;3.70;3.60;;;;;;;5.76;67.32;98540.56;5073912;28;20266;-69
2023/03/28 04:31:13;;;;;;;3.70;3.40;;;;;;;5.71;66.91;98559.56;5072377;28;20590;-68
2023/03/28 04:33:39;;;;;;;3.90;3.60;;;;;;;5.82;67.04;98549.56;5073748;28;20591;-70
2023/03/28 04:36:10;;;;;;;3.03;2.90;;;;;;;5.51;67.18;98541.94;5073354;28;20192;-68
2023/03/28 04:38:36;;;;;;;3.10;3.00;;;;;;;5.49;66.96;98565.00;5070666;28;20696;-70
2023/03/28 04:41:07;;;;;;;2.83;2.73;;;;;;;5.60;66.56;98573.22;5067689;28;20192;-69
2023/03/28 04:43:33;;;;;;;3.73;3.57;;;;;;;5.63;66.96;98580.75;5071445;28;20250;-67
2023/03/28 04:46:00;;;;;;;3.27;3.17;;;;;;;5.74;65.74;98590.00;5072293;28;20206;-68
2023/03/28 04:48:27;;;;;;;3.00;2.90;;;;;;;5.66;65.65;98593.56;5072853;28;20203;-67
2023/03/28 04:50:54;;;;;;;2.83;2.73;;;;;;;5.71;65.64;98600.91;5072179;28;20184;-67
2023/03/28 04:53:23;;;;;;;2.93;2.63;;;;;;;5.57;66.24;98584.13;5072469;28;20199;-69
2023/03/28 04:55:50;;;;;;;2.37;2.27;;;;;;;5.77;65.42;98585.16;5072367;28;20192;-71
2023/03/28 04:58:17;;;;;;;2.50;2.40;;;;;;;5.78;64.76;98591.25;5071309;28;20285;-69
2023/03/28 05:00:44;;;;;;;3.47;2.47;;;;;;;5.75;64.38;98612.69;5057561;28;20583;-69
2023/03/28 05:03:13;;;;;;;2.23;2.13;;;;;;;5.69;64.44;98608.97;5068360;28;20196;-69
2023/03/28 05:05:40;;;;;;;2.43;1.90;;;;;;;5.88;64.40;98604.94;5069798;28;20195;-70
2023/03/28 05:08:07;;;;;;;1.90;1.90;;;;;;;6.03;64.02;98604.88;5071700;28;20199;-69
2023/03/28 05:10:35;;;;;;;2.77;2.57;;;;;;;6.22;63.86;98625.34;5071128;28;20259;-71
2023/03/28 05:13:02;;;;;;;2.93;2.27;;;;;;;6.83;62.08;98632.53;5067491;28;20196;-69
2023/03/28 05:15:30;;;;;;;4.23;2.43;;;;;;;7.23;60.17;98634.38;5053009;28;20204;-70
2023/03/28 05:17:56;;;;;;;2.10;2.00;;;;;;;7.20;59.55;98648.81;5051662;28;20627;-69
2023/03/28 05:20:23;;;;;;;2.00;1.90;;;;;;;7.08;58.92;98646.88;5055952;28;20215;-68
2023/03/28 05:22:50;;;;;;;6.60;2.10;;;;;;;6.88;59.98;98651.22;5071651;28;20323;-69
2023/03/28 05:25:17;;;;;;;3.87;2.03;;;;;;;6.43;60.53;98646.41;5070068;28;20249;-69
2023/03/28 05:27:45;;;;;;;1.97;1.97;;;;;;;6.74;60.73;98654.78;5070528;28;20778;-69
2023/03/28 05:30:14;;;;;;;11.93;2.13;;;;;;;6.74;60.58;98657.44;5065548;28;20676;-68
2023/03/28 05:32:41;;;;;;;1.53;1.53;;;;;;;6.44;61.57;98661.22;5070895;28;20239;-66
2023/03/28 05:35:10;;;;;;;2.57;1.93;;;;;;;6.27;61.13;98663.31;5071554;28;20198;-69
2023/03/28 05:37:37;;;;;;;2.70;2.20;;;;;;;6.16;61.44;98668.28;5071880;28;20231;-68
2023/03/28 05:40:05;;;;;;;2.43;2.27;;;;;;;6.06;61.42;98680.94;5070349;28;20212;-67
2023/03/28 05:42:32;;;;;;;2.03;2.03;;;;;;;5.99;61.57;98672.16;5071601;28;20188;-68
2023/03/28 05:45:00;;;;;;;2.70;2.10;;;;;;;6.48;60.55;98691.50;5069809;28;20258;-68
2023/03/28 05:47:27;;;;;;;13.50;2.27;;;;;;;6.87;59.71;98697.94;5051473;28;20193;-68
2023/03/28 05:49:53;;;;;;;2.13;2.03;;;;;;;6.74;59.96;98704.94;5051693;28;20196;-68
2023/03/28 05:52:20;;;;;;;2.33;2.13;;;;;;;6.56;59.32;98696.63;5050462;28;20689;-67
2023/03/28 05:54:47;;;;;;;1.80;1.80;;;;;;;6.55;59.26;98689.75;5064082;28;20196;-67
2023/03/28 05:57:13;;;;;;;4.37;2.37;;;;;;;6.81;58.13;98695.25;5067584;28;20276;-68
2023/03/28 05:59:41;;;;;;;1.90;1.90;;;;;;;7.06;57.86;98701.72;5071082;28;20223;-69
2023/03/28 06:02:12;;;;;;;1.60;1.60;;;;;;;7.59;55.40;98701.03;5071208;28;20200;-69
2023/03/28 06:04:38;;;;;;;3.00;2.90;;;;;;;7.29;56.16;98708.38;5064775;28;20217;-70
2023/03/28 06:07:06;;;;;;;1.80;1.80;;;;;;;7.46;55.69;98708.84;5052197;28;20270;-69
2023/03/28 06:09:33;;;;;;;3.33;2.43;;;;;;;7.67;55.23;98703.50;5052337;28;20212;-70
2023/03/28 06:12:01;;;;;;;2.03;1.93;;;;;;;8.41;53.13;98713.09;5056111;28;20649;-70
2023/03/28 06:14:28;;;;;;;7.27;1.80;;;;;;;8.43;53.27;98687.25;5057838;28;20231;-71
2023/03/28 06:16:55;;;;;;;1.70;1.60;;;;;;;8.03;54.05;98678.41;5069403;28;20270;-70
2023/03/28 06:19:23;;;;;;;6.93;1.80;;;;;;;7.70;54.86;98681.94;5069666;28;20764;-71
2023/03/28 06:21:50;;;;;;;1.70;1.70;;;;;;;7.67;55.54;98677.06;5067342;28;20203;-69
2023/03/28 06:24:17;;;;;;;2.67;2.00;;;;;;;7.60;56.32;98661.16;5068892;28;20196;-71
2023/03/28 06:26:44;;;;;;;2.27;2.17;;;;;;;7.64;56.36;98677.47;5069744;28;20231;-70
2023/03/28 06:29:11;;;;;;;6.57;1.70;;;;;;;7.79;55.16;98680.75;5071359;28;20209;-70
2023/03/28 06:31:38;;;;;;;3.40;2.73;;;;;;;7.88;55.44;98675.09;5050795;28;20222;-71
2023/03/28 06:34:05;;;;;;;5.93;2.80;;;;;;;7.59;55.49;98640.25;5070094;28;20199;-70
2023/03/28 06:36:33;;;;;;;1.93;1.83;;;;;;;7.84;54.24;98699.50;5070061;28;20224;-69
2023/03/28 06:39:00;;;;;;;2.47;2.20;;;;;;;8.25;53.26;98702.91;5068325;28;20283;-72
2023/03/28 06:41:27;;;;;;;3.83;2.77;;;;;;;8.25;51.24;98703.69;5050179;28;20207;-70
2023/03/28 06:43:53;;;;;;;3.30;3.00;;;;;;;8.96;49.89;98739.22;5052481;28;20747;-69
2023/03/28 06:46:20;;;;;;;15.00;3.20;;;;;;;9.03;46.43;98708.25;5070045;28;20211;-70
2023/03/28 06:48:47;;;;;;;7.67;3.33;;;;;;;9.32;46.64;98755.50;5070157;28;20253;-71
2023/03/28 06:51:14;;;;;;;4.60;2.80;;;;;;;9.02;45.39;98751.63;5068092;28;20730;-70
2023/03/28 06:53:42;;;;;;;3.77;2.63;;;;;;;8.86;46.48;98739.59;5059435;28;20204;-70
2023/03/28 06:56:09;;;;;;;9.47;4.30;;;;;;;8.86;46.60;98746.75;5050626;28;20204;-68
2023/03/28 06:58:36;;;;;;;6.83;3.50;;;;;;;8.70;46.33;98745.28;5050217;28;20254;-68
2023/03/28 07:01:03;;;;;;;10.27;3.03;;;;;;;9.07;46.70;98754.50;5050373;28;20629;-68
2023/03/28 07:03:30;;;;;;;5.37;3.60;;;;;;;9.60;45.63;98777.25;5049812;28;20252;-69
2023/03/28 07:05:57;;;;;;;3.60;3.37;;;;;;;9.52;46.16;98756.28;5050405;28;20665;-68
2023/03/28 07:08:24;;;;;;;11.40;2.50;;;;;;;9.84;44.77;98774.75;5049244;28;20200;-68
2023/03/28 07:10:52;;;;;;;19.10;4.70;;;;;;;9.85;44.76;98757.81;5062417;28;20200;-69
2023/03/28 07:13:19;;;;;;;10.67;2.90;;;;;;;9.87;44.13;98776.16;5069328;28;20195;-69
2023/03/28 07:15:45;;;;;;;7.80;3.33;;;;;;;9.62;45.63;98754.81;5067365;28;20200;-69
2023/03/28 07:18:12;;;;;;;4.30;2.47;;;;;;;9.32;45.87;98761.59;5070017;28;20188;-69
2023/03/28 07:20:39;;;;;;;2.50;2.40;;;;;;;9.43;45.71;98776.03;5060484;28;20220;-69
2023/03/28 07:23:06;;;;;;;33.67;4.43;;;;;;;9.30;47.70;98731.03;5067022;28;20203;-71
2023/03/28 07:25:33;;;;;;;2.77;2.67;;;;;;;9.32;46.99;98719.19;5069530;28;20196;-69
2023/03/28 07:28:01;;;;;;;2.80;2.60;;;;;;;9.17;47.61;98739.00;5029501;28;20193;-69
2023/03/28 07:30:28;;;;;;;3.70;2.90;;;;;;;8.98;48.26;98726.56;5029198;28;20216;-71
2023/03/28 07:32:54;;;;;;;3.30;3.10;;;;;;;9.34;47.44;98717.16;5028890;28;20198;-71
2023/03/28 07:35:21;;;;;;;11.77;3.37;;;;;;;9.27;44.69;98737.56;5015856;28;20588;-70
2023/03/28 07:37:48;;;;;;;6.67;2.77;;;;;;;9.15;44.25;98688.84;5023228;28;20247;-71
2023/03/28 07:40:15;;;;;;;3.00;2.60;;;;;;;9.19;46.11;98731.66;5029526;28;20221;-71
2023/03/28 07:42:42;;;;;;;2.70;2.60;;;;;;;9.00;46.03;98719.25;5028894;28;20193;-71
2023/03/28 07:45:11;;;;;;;2.73;2.50;;;;;;;9.14;45.46;98726.97;5030183;28;20201;-70
2023/03/28 07:47:38;;;;;;;3.30;3.00;;;;;;;9.25;44.96;98728.19;5035289;28;20293;-69
2023/03/28 07:50:05;;;;;;;3.20;2.90;;;;;;;9.49;44.81;98746.06;5044114;28;20659;-70
2023/03/28 07:52:32;;;;;;;2.87;2.67;;;;;;;9.62;44.16;98743.41;5013074;28;20733;-69
2023/03/28 07:54:59;;;;;;;2.40;2.30;;;;;;;9.33;45.08;98725.31;5013505;28;20198;-69
2023/03/28 07:57:26;;;;;;;2.73;2.60;;;;;;;9.48;44.29;98760.38;5026788;28;20197;-71
2023/03/28 07:59:54;;;;;;;4.50;3.10;;;;;;;9.56;44.35;98739.72;5026537;28;20213;-69
2023/03/28 08:02:23;;;;;;;3.73;3.53;;;;;;;9.65;44.71;98751.72;5012995;28;20221;-71
2023/03/28 08:04:52;;;;;;;2.87;2.67;;;;;;;9.81;44.73;98772.50;5016922;28;20240;-69
2023/03/28 08:07:19;;;;;;;2.83;2.60;;;;;;;10.18;43.44;98761.16;5032517;28;20197;-70
2023/03/28 08:09:46;;;;;;;11.37;3.17;;;;;;;10.20;42.17;98771.56;5032425;28;20205;-70
2023/03/28 08:12:12;;;;;;;4.97;2.80;;;;;;;9.71;43.15;98760.69;5032492;28;20662;-71
2023/03/28 08:14:39;;;;;;;8.30;3.43;;;;;;;9.48;44.21;98749.75;5032669;28;20214;-70
2023/03/28 08:17:06;;;;;;;4.00;2.30;;;;;;;9.41;43.33;98786.06;5032327;28;20272;-70
2023/03/28 08:19:34;;;;;;;2.93;2.73;;;;;;;9.51;44.09;98779.31;5032991;28;20267;-70
2023/03/28 08:22:01;;;;;;;18.73;4.63;;;;;;;9.94;43.31;98774.31;5032571;28;20204;-71
2023/03/28 08:24:28;;;;;;;3.00;2.90;;;;;;;10.02;43.03;98776.72;5032523;28;20201;-70
2023/03/28 08:26:55;;;;;;;8.57;3.10;;;;;;;10.00;41.94;98786.72;5054103;28;20704;-72
2023/03/28 08:29:22;;;;;;;7.33;3.23;;;;;;;10.35;41.28;98786.22;5059298;28;20192;-71
2023/03/28 08:31:49;;;;;;;3.80;2.90;;;;;;;10.13;41.92;98781.44;5059352;28;20677;-71
2023/03/28 08:34:16;;;;;;;3.20;2.90;;;;;;;9.94;42.08;98796.34;5060726;28;20195;-69
2023/03/28 08:36:44;;;;;;;7.73;4.00;;;;;;;9.89;42.98;98803.31;5072579;28;20253;-68
2023/03/28 08:39:11;;;;;;;2.80;2.60;;;;;;;9.89;43.03;98806.75;5071366;28;20249;-72
2023/03/28 08:41:52;;;;;;;6.20;2.90;;;;;;;9.86;41.16;98827.59;5072405;28;20664;-70
2023/03/28 08:44:38;;;;;;;6.47;3.10;;;;;;;9.47;42.86;98827.63;5072436;28;20237;-69
2023/03/28 08:47:13;;;;;;;4.63;2.80;;;;;;;9.40;42.53;98810.94;5072853;28;20196;-70
2023/03/28 08:49:46;;;;;;;3.90;3.10;;;;;;;9.68;42.53;98808.88;5069521;28;20199;-70
2023/03/28 08:52:18;;;;;;;2.70;2.60;;;;;;;9.72;42.04;98804.78;5071184;28;20184;-69
2023/03/28 08:54:49;;;;;;;2.93;2.83;;;;;;;9.43;42.53;98821.09;5070665;28;20188;-71
2023/03/28 08:57:20;;;;;;;3.00;2.70;;;;;;;9.92;40.84;98809.00;5071097;28;20195;-70
2023/03/28 08:59:54;;;;;;;3.10;2.43;;;;;;;10.05;41.49;98826.75;5062305;28;20231;-72
2023/03/28 09:02:22;;;;;;;7.00;3.03;;;;;;;9.76;41.38;98811.31;5072202;28;20702;-71
2023/03/28 09:04:51;;;;;;;2.47;2.37;;;;;;;9.70;41.00;98809.47;5071728;28;20698;-69
2023/03/28 09:07:31;;;;;;;2.17;2.17;;;;;;;10.04;40.58;98836.50;5072643;28;20607;-72
2023/03/28 09:10:10;;;;;;;5.80;3.70;;;;;;;9.92;40.13;98819.59;5052052;28;20196;-72
2023/03/28 09:12:49;;;;;;;2.00;1.90;;;;;;;10.23;40.56;98818.94;5063797;28;20320;-73
2023/03/28 09:15:30;;;;;;;2.47;2.27;;;;;;;10.52;39.66;98836.97;5061103;28;20184;-71
2023/03/28 09:18:10;;;;;;;6.13;2.67;;;;;;;10.82;38.56;98825.56;5056970;28;20185;-71
2023/03/28 09:20:43;;;;;;;3.17;2.50;;;;;;;11.11;38.19;98824.16;5070496;28;20203;-70
2023/03/28 09:23:37;;;;;;;2.10;2.00;;;;;;;11.39;37.66;98826.41;5066378;28;20190;-69
2023/03/28 09:26:07;;;;;;;2.60;2.37;;;;;;;10.64;40.86;98811.38;5064466;28;20233;-70
2023/03/28 09:28:42;;;;;;;2.53;2.33;;;;;;;10.96;40.66;98844.91;5071395;28;20891;-71
2023/03/28 09:31:12;;;;;;;3.07;2.57;;;;;;;10.48;41.13;98844.56;5063268;28;20191;-72
2023/03/28 09:33:41;;;;;;;6.30;2.77;;;;;;;10.25;42.22;98841.56;5056896;28;20219;-71
2023/03/28 09:36:13;;;;;;;2.33;2.23;;;;;;;10.71;40.84;98846.69;5069446;28;20738;-69
2023/03/28 09:38:45;;;;;;;4.63;2.47;;;;;;;10.77;38.26;98861.78;5062011;28;20184;-69
2023/03/28 09:41:16;;;;;;;14.73;3.00;;;;;;;11.01;37.40;98871.66;5067131;28;20680;-70
2023/03/28 09:43:49;;;;;;;2.43;2.00;;;;;;;11.39;36.43;98885.69;5070751;28;20184;-69
2023/03/28 09:46:24;;;;;;;15.33;2.97;;;;;;;11.41;35.37;98862.38;5069590;28;20184;-69
2023/03/28 09:48:50;;;;;;;2.30;2.00;;;;;;;11.15;35.43;98872.38;5069608;28;20187;-69
2023/03/28 09:51:19;;;;;;;2.63;2.43;;;;;;;11.53;34.87;98879.28;5070395;28;20201;-69
2023/03/28 09:53:47;;;;;;;4.33;2.13;;;;;;;10.75;35.85;98893.84;5071295;28;20204;-70
2023/03/28 09:56:24;;;;;;;4.03;2.00;;;;;;;10.53;36.53;98883.75;5072242;28;20270;-71
2023/03/28 09:58:53;;;;;;;2.07;1.97;;;;;;;10.31;37.07;98900.97;5071731;28;20640;-70
2023/03/28 10:01:26;;;;;;;4.40;2.43;;;;;;;9.93;36.74;98897.38;5071859;28;20716;-69
2023/03/28 10:03:54;;;;;;;2.00;1.90;;;;;;;9.88;37.65;98905.09;5071893;28;20194;-69
2023/03/28 10:06:25;;;;;;;3.60;2.53;;;;;;;10.18;37.63;98891.19;5071823;28;20617;-70
2023/03/28 10:09:07;;;;;;;3.13;2.23;;;;;;;10.48;38.38;98899.50;5072362;28;20200;-71
2023/03/28 10:11:46;;;;;;;10.30;3.00;;;;;;;11.01;36.82;98900.88;5071330;28;20245;-70
2023/03/28 10:14:29;;;;;;;2.23;2.03;;;;;;;11.57;35.35;98896.41;5072170;28;20245;-70
2023/03/28 10:16:56;;;;;;;22.87;3.60;;;;;;;11.45;34.61;98898.16;5072261;28;20217;-70
2023/03/28 10:19:25;;;;;;;2.00;1.90;;;;;;;11.56;34.97;98908.06;5071584;28;20658;-71
2023/03/28 10:21:52;;;;;;;6.57;2.40;;;;;;;11.54;34.07;98907.47;5072034;28;20332;-70
2023/03/28 10:24:21;;;;;;;9.20;2.33;;;;;;;11.04;34.12;98906.56;5071899;28;20239;-69
2023/03/28 10:26:49;;;;;;;5.13;2.27;;;;;;;11.00;34.00;98907.22;5071478;28;20232;-69
2023/03/28 10:29:16;;;;;;;8.57;2.40;;;;;;;10.87;34.65;98912.63;5071561;28;20644;-69
2023/03/28 10:31:48;;;;;;;11.90;2.60;;;;;;;10.82;34.49;98921.22;5071593;28;20201;-70
2023/03/28 10:34:25;;;;;;;11.50;2.27;;;;;;;11.04;35.08;98908.44;5071572;28;20275;-70
2023/03/28 10:36:52;;;;;;;10.23;2.40;;;;;;;10.97;35.23;98905.00;5071923;28;20216;-70
2023/03/28 10:39:25;;;;;;;6.60;2.70;;;;;;;10.79;34.87;98926.13;5071455;28;20189;-70
2023/03/28 10:41:53;;;;;;;2.47;2.03;;;;;;;10.41;35.24;98922.59;5071763;28;20211;-70
2023/03/28 10:44:27;;;;;;;13.23;3.20;;;;;;;10.36;34.86;98904.66;5071242;28;20221;-70
2023/03/28 10:46:55;;;;;;;1.90;1.80;;;;;;;10.52;35.10;98932.56;5071676;28;20211;-70
2023/03/28 10:49:22;;;;;;;2.97;2.00;;;;;;;10.74;35.11;98940.03;5071468;28;20622;-70
2023/03/28 10:51:50;;;;;;;4.10;2.97;;;;;;;10.64;34.61;98944.16;5071264;28;20269;-70
2023/03/28 10:54:35;;;;;;;6.03;5.27;;;;;;;10.39;34.92;98924.66;5071544;28;20196;-70
2023/03/28 10:57:07;;;;;;;4.50;3.00;;;;;;;10.26;34.92;98940.59;5071567;28;20235;-70
2023/03/28 10:59:45;;;;;;;38.83;3.77;;;;;;;10.11;35.45;98921.44;5071908;28;20189;-70
2023/03/28 11:02:34;;;;;;;9.03;3.07;;;;;;;10.49;34.17;98909.91;5071664;28;20211;-70
2023/03/28 11:05:05;;;;;;;6.20;2.00;;;;;;;10.84;34.25;98910.38;5071274;28;20188;-70
2023/03/28 11:07:41;;;;;;;2.50;2.10;;;;;;;10.47;33.78;98911.94;5071808;28;20245;-70
2023/03/28 11:10:18;;;;;;;3.47;2.20;;;;;;;10.33;34.42;98906.88;5071225;28;20740;-70
2023/03/28 11:12:56;;;;;;;7.87;2.17;;;;;;;10.62;34.28;98925.00;5071064;28;20653;-70
2023/03/28 11:15:30;;;;;;;3.27;2.23;;;;;;;10.66;33.98;98937.63;5071485;28;20304;-69
2023/03/28 11:18:08;;;;;;;7.57;2.60;;;;;;;10.70;34.05;98930.03;5071506;28;20195;-69
2023/03/28 11:20:45;;;;;;;2.37;2.17;;;;;;;10.87;33.97;98950.59;5071021;28;20590;-70
2023/03/28 11:23:30;;;;;;;3.47;2.20;;;;;;;10.87;33.76;98968.41;5072130;28;20189;-70
2023/03/28 11:26:07;;;;;;;10.30;2.63;;;;;;;10.60;33.45;98974.81;5075203;28;20231;-70
2023/03/28 11:28:44;;;;;;;6.37;2.47;;;;;;;10.52;33.97;98957.28;5074885;28;20797;-69
2023/03/28 11:31:15;;;;;;;6.63;2.60;;;;;;;10.65;34.38;98961.72;5073990;28;20188;-70
2023/03/28 11:33:52;;;;;;;10.47;2.90;;;;;;;10.66;33.10;98950.09;5072978;28;20253;-70
2023/03/28 11:36:24;;;;;;;4.23;2.23;;;;;;;10.22;33.89;98950.00;5052968;28;20188;-73
2023/03/28 11:38:56;;;;;;;5.37;2.70;;;;;;;10.24;34.27;98942.63;5054071;28;20626;-69
2023/03/28 11:41:30;;;;;;;3.10;2.33;;;;;;;10.69;33.98;98960.28;5053331;28;20651;-70
2023/03/28 11:44:01;;;;;;;2.37;2.27;;;;;;;10.66;33.69;98963.38;5053399;28;20217;-70
2023/03/28 11:46:31;;;;;;;4.10;2.60;;;;;;;10.23;33.89;98951.63;5053869;28;20624;-72
2023/03/28 11:49:13;;;;;;;13.53;3.10;;;;;;;10.15;34.17;98981.03;5053663;28;20192;-69
2023/03/28 11:51:45;;;;;;;11.43;2.57;;;;;;;10.22;34.17;98960.63;5052563;28;20188;-70
2023/03/28 11:54:16;;;;;;;5.67;2.60;;;;;;;10.54;33.48;98983.63;5053503;28;20630;-69